createdAt,value
2022-12-01T00:01:22.202Z,4.57
2022-12-01T00:05:01.706Z,4.65
2022-12-01T00:08:24.081Z,3.78
2022-12-01T00:11:54.582Z,3.05
2022-12-01T00:15:31.884Z,4.28
2022-12-01T00:22:26.798Z,4.08
2022-12-01T00:33:44.650Z,4.02
2022-12-01T00:37:00.661Z,3.12
2022-12-01T00:40:16.649Z,3.90
2022-12-01T00:43:26.718Z,3.12
2022-12-01T00:46:37.640Z,2.49
2022-12-01T00:49:46.898Z,2.87
2022-12-01T00:52:57.654Z,3.06
2022-12-01T00:56:06.561Z,3.38
2022-12-01T00:59:28.665Z,3.55
2022-12-01T01:02:41.034Z,3.52
2022-12-01T01:05:51.770Z,3.50
2022-12-01T01:09:00.244Z,2.69
2022-12-01T01:12:08.706Z,3.41
2022-12-01T01:15:27.729Z,3.35
2022-12-01T01:18:35.639Z,3.16
2022-12-01T01:21:51.614Z,2.92
2022-12-01T01:25:09.623Z,3.20
2022-12-01T01:28:19.039Z,3.18
2022-12-01T01:31:36.829Z,3.17
2022-12-01T01:34:46.905Z,3.15
2022-12-01T01:38:05.676Z,2.69
2022-12-01T01:41:16.131Z,3.05
2022-12-01T01:44:51.574Z,2.45
2022-12-01T01:48:27.866Z,2.96
2022-12-01T01:51:37.017Z,1.74
2022-12-01T01:55:14.704Z,1.77
2022-12-01T01:58:24.070Z,2.76
2022-12-01T02:01:34.072Z,2.69
2022-12-01T02:04:47.950Z,2.61
2022-12-01T02:08:04.691Z,2.54
2022-12-01T02:11:42.434Z,2.07
2022-12-01T02:15:20.827Z,1.62
2022-12-01T02:18:45.905Z,2.37
2022-12-01T02:22:29.695Z,2.37
2022-12-01T02:26:22.741Z,2.27
2022-12-01T02:30:07.027Z,1.14
2022-12-01T02:33:35.842Z,2.33
2022-12-01T02:37:01.710Z,2.45
2022-12-01T02:40:21.662Z,2.19
2022-12-01T02:43:50.606Z,2.12
2022-12-01T02:47:03.512Z,1.69
2022-12-01T02:50:19.679Z,2.37
2022-12-01T02:53:22.022Z,1.83
2022-12-01T02:56:36.605Z,2.30
2022-12-01T02:59:41.798Z,2.26
2022-12-01T03:03:25.248Z,1.47
2022-12-01T03:07:21.083Z,2.24
2022-12-01T03:10:45.324Z,1.38
2022-12-01T03:14:43.041Z,2.02
2022-12-01T03:18:23.820Z,2.06
2022-12-01T03:21:35.063Z,1.98
2022-12-01T03:24:55.658Z,1.96
2022-12-01T03:28:20.625Z,1.08
2022-12-01T03:31:39.735Z,1.85
2022-12-01T03:34:54.574Z,1.74
2022-12-01T03:38:19.671Z,2.04
2022-12-01T03:41:27.905Z,2.03
2022-12-01T03:44:51.938Z,2.11
2022-12-01T03:48:09.707Z,0.93
2022-12-01T03:51:44.967Z,2.30
2022-12-01T03:55:11.763Z,1.23
2022-12-01T03:58:41.722Z,2.43
2022-12-01T04:01:51.817Z,1.40
2022-12-01T04:05:03.825Z,2.47
2022-12-01T04:08:26.690Z,1.31
2022-12-01T04:11:35.369Z,1.94
2022-12-01T04:14:43.686Z,2.25
2022-12-01T04:17:55.209Z,1.77
2022-12-01T04:21:17.729Z,2.29
2022-12-01T04:24:33.811Z,2.18
2022-12-01T04:27:36.045Z,2.15
2022-12-01T04:30:50.647Z,2.07
2022-12-01T04:34:05.063Z,2.00
2022-12-01T04:37:21.515Z,1.53
2022-12-01T04:40:29.778Z,0.60
2022-12-01T04:43:56.970Z,0.81
2022-12-01T04:47:03.794Z,1.85
2022-12-01T04:50:19.726Z,1.86
2022-12-01T04:57:05.701Z,1.76
2022-12-01T05:00:08.080Z,1.78
2022-12-01T05:03:33.803Z,1.80
2022-12-01T05:06:54.475Z,1.41
2022-12-01T05:10:10.647Z,1.81
2022-12-01T05:13:18.768Z,1.79
2022-12-01T05:16:40.777Z,1.31
2022-12-01T05:19:49.859Z,1.23
2022-12-01T05:23:06.565Z,1.73
2022-12-01T05:26:15.730Z,1.63
2022-12-01T05:29:24.306Z,1.71
2022-12-01T05:32:33.009Z,1.74
2022-12-01T05:35:57.692Z,0.87
2022-12-01T05:38:59.887Z,1.57
2022-12-01T05:42:15.120Z,0.24
2022-12-01T05:45:17.295Z,1.51
2022-12-01T05:48:34.998Z,0.14
2022-12-01T05:51:36.947Z,1.51
2022-12-01T05:54:59.200Z,1.51
2022-12-01T05:58:01.623Z,1.48
2022-12-01T06:01:16.958Z,0.16
2022-12-01T06:04:18.748Z,1.39
2022-12-01T06:07:39.729Z,1.36
2022-12-01T06:10:41.756Z,0.58
2022-12-01T06:14:18.730Z,0.61
2022-12-01T06:17:23.581Z,0.11
2022-12-01T06:20:39.688Z,1.41
2022-12-01T06:23:58.762Z,0.84
2022-12-01T06:27:07.475Z,1.40
2022-12-01T06:30:15.835Z,0.92
2022-12-01T06:41:37.686Z,1.33
2022-12-01T06:55:50.200Z,1.70
2022-12-01T07:03:13.551Z,1.98
2022-12-01T07:14:46.074Z,2.30
2022-12-01T07:18:05.907Z,2.19
2022-12-01T07:21:47.731Z,2.38
2022-12-01T07:25:02.834Z,2.64
2022-12-01T07:28:19.559Z,2.64
2022-12-01T07:39:19.820Z,2.97
2022-12-01T07:42:39.913Z,3.04
2022-12-01T07:54:07.589Z,3.22
2022-12-01T07:58:19.495Z,3.25
2022-12-01T08:02:17.317Z,3.21
2022-12-01T08:37:19.287Z,4.21
2022-12-01T09:21:23.041Z,5.33
2022-12-01T09:29:00.564Z,5.69
2022-12-01T09:45:34.722Z,5.73
2022-12-01T11:55:29.351Z,6.49
2022-12-01T12:19:52.485Z,6.49
2022-12-01T12:23:36.796Z,6.39
2022-12-01T12:35:01.764Z,6.73
2022-12-01T12:47:19.921Z,6.53
2022-12-01T12:59:26.908Z,6.77
2022-12-01T13:29:47.317Z,6.75
2022-12-01T13:33:48.042Z,6.60
2022-12-01T13:37:00.851Z,6.68
2022-12-01T13:40:35.045Z,6.72
2022-12-01T14:27:38.771Z,6.20
2022-12-01T14:35:01.780Z,5.85
2022-12-01T14:38:34.804Z,6.06
2022-12-01T14:57:07.362Z,5.77
2022-12-01T15:00:24.137Z,5.94
2022-12-01T15:16:28.916Z,5.93
2022-12-01T15:20:04.824Z,5.49
2022-12-01T15:27:03.666Z,5.89
2022-12-01T15:30:20.921Z,5.92
2022-12-01T15:33:37.163Z,5.32
2022-12-01T15:36:52.776Z,5.84
2022-12-01T15:41:27.462Z,5.84
2022-12-01T15:44:37.758Z,5.84
2022-12-01T15:51:44.983Z,5.72
2022-12-01T16:06:41.781Z,5.65
2022-12-01T16:10:37.793Z,5.57
2022-12-01T16:14:21.879Z,5.48
2022-12-01T16:29:59.867Z,5.33
2022-12-01T16:45:50.834Z,5.30
2022-12-01T16:49:05.767Z,4.59
2022-12-01T16:56:33.830Z,5.30
2022-12-01T16:59:55.905Z,5.14
2022-12-01T17:03:51.762Z,5.28
2022-12-01T17:07:06.837Z,5.27
2022-12-01T17:14:06.842Z,5.19
2022-12-01T17:17:21.934Z,5.15
2022-12-01T17:20:38.534Z,5.09
2022-12-01T17:24:09.490Z,5.13
2022-12-01T17:27:45.800Z,4.68
2022-12-01T17:30:53.888Z,5.09
2022-12-01T17:45:10.346Z,4.83
2022-12-01T17:48:24.757Z,4.83
2022-12-01T17:54:58.406Z,4.71
2022-12-01T17:58:12.849Z,4.71
2022-12-01T18:01:33.914Z,4.64
2022-12-01T18:07:55.833Z,4.47
2022-12-01T18:11:14.746Z,4.49
2022-12-01T18:14:31.777Z,4.42
2022-12-01T18:17:40.309Z,4.38
2022-12-01T18:20:49.746Z,4.43
2022-12-01T18:24:07.761Z,4.45
2022-12-01T18:27:33.014Z,4.41
2022-12-01T18:30:58.827Z,4.37
2022-12-01T18:38:11.778Z,4.39
2022-12-01T18:41:45.939Z,4.32
2022-12-01T18:45:23.041Z,4.38
2022-12-01T18:53:42.880Z,4.34
2022-12-01T18:56:59.779Z,4.31
2022-12-01T19:00:08.849Z,4.29
2022-12-01T19:03:23.853Z,4.27
2022-12-01T19:10:15.786Z,4.30
2022-12-01T19:13:17.661Z,4.25
2022-12-01T19:16:34.886Z,4.23
2022-12-01T19:19:37.703Z,4.33
2022-12-01T19:22:54.877Z,4.28
2022-12-01T19:29:16.875Z,4.34
2022-12-01T19:32:31.890Z,3.61
2022-12-01T19:35:40.470Z,4.35
2022-12-01T19:38:55.823Z,4.39
2022-12-01T19:42:05.511Z,4.36
2022-12-01T19:45:14.827Z,4.17
2022-12-01T19:48:23.361Z,4.22
2022-12-01T19:51:40.785Z,4.29
2022-12-01T19:54:55.871Z,4.28
2022-12-01T19:57:57.563Z,4.28
2022-12-01T20:01:15.851Z,4.29
2022-12-01T20:04:17.638Z,4.24
2022-12-01T20:07:32.047Z,4.15
2022-12-01T20:14:57.892Z,4.23
2022-12-01T20:18:05.778Z,3.91
2022-12-01T20:21:19.914Z,4.07
2022-12-01T20:24:54.754Z,4.06
2022-12-01T20:28:09.839Z,4.02
2022-12-01T20:31:17.326Z,3.98
2022-12-01T20:34:37.843Z,3.91
2022-12-01T20:37:39.385Z,3.87
2022-12-01T20:41:00.846Z,3.79
2022-12-01T20:44:09.835Z,3.68
2022-12-01T20:47:17.834Z,3.56
2022-12-01T20:50:26.539Z,3.55
2022-12-01T20:53:34.824Z,3.46
2022-12-01T20:56:49.805Z,3.45
2022-12-01T20:59:51.566Z,3.45
2022-12-01T21:03:05.882Z,3.35
2022-12-01T21:10:36.358Z,3.23
2022-12-01T21:13:46.277Z,3.12
2022-12-01T21:17:06.014Z,2.23
2022-12-01T21:24:54.289Z,2.94
2022-12-01T21:32:05.907Z,2.92
2022-12-01T21:42:57.873Z,2.84
2022-12-01T21:46:19.895Z,2.80
2022-12-01T21:54:16.546Z,2.80
2022-12-01T21:58:24.830Z,2.73
2022-12-01T22:01:34.535Z,2.60
2022-12-01T22:04:44.105Z,2.38
2022-12-01T22:11:38.141Z,2.57
2022-12-01T22:14:53.136Z,2.73
2022-12-01T22:18:37.723Z,2.87
2022-12-01T22:21:55.914Z,2.50
2022-12-01T22:25:28.851Z,3.00
2022-12-01T22:28:30.641Z,3.06
2022-12-01T22:31:45.854Z,3.12
2022-12-01T22:35:03.821Z,3.17
2022-12-01T22:38:33.855Z,3.20
2022-12-01T22:41:42.411Z,3.26
2022-12-01T22:44:56.826Z,3.27
2022-12-01T22:48:31.533Z,3.34
2022-12-01T22:51:47.837Z,3.32
2022-12-01T22:55:21.786Z,3.27
2022-12-01T22:58:36.836Z,3.30
2022-12-01T23:01:52.636Z,3.16
2022-12-01T23:05:04.837Z,3.20
2022-12-01T23:08:28.801Z,3.19
2022-12-01T23:11:30.486Z,3.21
2022-12-01T23:14:53.052Z,3.21
2022-12-01T23:17:55.109Z,3.12
2022-12-01T23:21:09.864Z,2.98
2022-12-01T23:24:21.955Z,2.68
2022-12-01T23:27:30.837Z,2.99
2022-12-01T23:30:39.818Z,3.00
2022-12-01T23:33:54.822Z,3.06
2022-12-01T23:37:02.857Z,3.03
2022-12-01T23:40:31.266Z,3.10
2022-12-01T23:43:44.874Z,3.07
2022-12-01T23:47:02.828Z,3.08
2022-12-01T23:50:13.225Z,3.09
2022-12-01T23:53:32.898Z,3.08
2022-12-01T23:56:37.798Z,3.11
2022-12-01T23:59:52.871Z,3.06
